首页
METAR-TAF:

METAR-TAF

机场 :

丰沙尔, 馬德拉群岛, 葡萄牙

克里斯蒂亚诺·罗纳尔多机场

纬度: 32-41-52N, 经度: 016-46-28W, 海拔: 59米

当前天气观测

该预报发布于37分钟前的17:30 UTC
风速13节,风向北转东北,在西北东北之间变化
温度 19°C
湿度 56%
气压 1022 hPa
能见度10公里或以上
少量云层高于1600英尺

METAR: LPMA 241730Z 02013KT 310V050 9999 FEW016 19/10 Q1022

时间: 19:07 (18:07 UTC)

预报

该预报发布于1小时和7分钟前的17:00 UTC
预报有效从24日的 18点(UTC)到 25日的 18点(UTC)
风速18节,风向,有时为30节阵风
能见度10公里或以上
散云层高于1500英尺
短暂存在
从 24日的 18点(UTC)到 25日的 18点(UTC)
风速15节,风向
短暂存在
从 24日的 21点(UTC)到 25日的 09点(UTC)
多云层高于1500英尺

TAF: LPMA 241700Z 2418/2518 36018G30KT 9999 SCT015 TEMPO 2418/2518 35015KT TEMPO 2421/2509 BKN015

超过4000个机场的气象观测和天气预报(METAR&TAF报告)。

可查询的气象台以黄色和红色小点在地图上表示。

将鼠标移到小点上方,可查看气象台名称。

然后点击查看天气观测和预报。

如需切换地图:点击带黑十字的绿色按钮放大地图;点击带横线的绿色按钮缩小地图;或者点击绿色箭头查看邻近地区的地图。


METAR-TAF: